Nearby METAR Reports

 

EGVO - Odiham Raf, United Kingdom
Distance from station: ESE 6mi, 10km
Updated: Wed, 22-Nov-2017 13:50 GMT
Mostly Cloudy
Mostly Cloudy
 Wind from SSW
Wind: SSW 26 mph , 43 km/h, Gust: 39 mph , 63 km/h
Temperature: 57°F , 14°C
Dew Point: 48°F , 9°C
Humidity: 72%
Barometer: 29.41 inHg , 996 hPa
Clouds: Mostly Cloudy
Visibility: 6 miles , 10 km
Cloud details: Partly Cloudy 1900 ft
Mostly Cloudy 3800 ft
2017/11/22 13:50 EGVO 221350Z 20023G34KT 9999 SCT019 BKN038 14/09 Q0996 WHT TEMPO FEW019 BKN038 BLU
EGLF - Farnborough, United Kingdom
Distance from station: E 14mi, 22km
Updated: Wed, 22-Nov-2017 13:50 GMT
Partly Cloudy
Partly Cloudy
 Wind from SSW
Wind: SSW 20 mph , 31 km/h
Temperature: 55°F , 13°C
Dew Point: 52°F , 11°C
Humidity: 88%
Barometer: 29.44 inHg , 997 hPa
Clouds: Partly Cloudy
Visibility: 6 miles , 10 km
Cloud details: Partly Cloudy 2000 ft
Partly Cloudy 2900 ft
2017/11/22 13:50 EGLF 221350Z 20017KT 9999 SCT020 SCT029 13/11 Q0997
 
EGVP - Middle Wallop, United Kingdom
Distance from station: WSW 23mi, 36km
Updated: Wed, 22-Nov-2017 13:50 GMT
Mostly Cloudy
Mostly Cloudy
 Wind from SSW
Wind: SSW 18 mph , 30 km/h
Temperature: 55°F , 13°C
Dew Point: 50°F , 10°C
Humidity: 82%
Barometer: 29.41 inHg , 996 hPa
Clouds: Mostly Cloudy
Visibility: 6 miles , 10 km
Cloud details: Mostly Cloudy 1400 ft
2017/11/22 13:50 EGVP 221350Z 20016KT 9999 BKN014 13/10 Q0996 GRN TEMPO BKN015 WHT
EGHI - Southampton Wx C, United Kingdom
Distance from station: SSW 24mi, 39km
Updated: Wed, 22-Nov-2017 13:50 GMT
Mostly Cloudy
Mostly Cloudy
 Wind from SSW
Wind: SSW 20 mph , 31 km/h, Gust: 32 mph , 52 km/h
Temperature: 55°F , 13°C
Dew Point: 48°F , 9°C
Humidity: 77%
Barometer: 29.44 inHg , 997 hPa
Clouds: Mostly Cloudy
Visibility: 6 miles , 10 km
Cloud details: Few Clouds 1700 ft
Mostly Cloudy 2200 ft
2017/11/22 13:50 EGHI 221350Z 20017G28KT 140V230 9999 FEW017 BKN022 13/09 Q0997
 
EGUB - Benson Raf, United Kingdom
Distance from station: N 24mi, 39km
Updated: Wed, 22-Nov-2017 13:50 GMT
Light rain, Mostly cloudy
Light rain, Mostly cloudy
 Wind from S
Wind: S 21 mph , 33 km/h, Gust: 32 mph , 52 km/h
Temperature: 57°F , 14°C
Dew Point: 50°F , 10°C
Humidity: 77%
Barometer: 29.38 inHg , 995 hPa
Summary: Light Rain
Clouds: Mostly Cloudy
Visibility: 6 miles , 10 km
Cloud details: Mostly Cloudy 1700 ft
2017/11/22 13:50 EGUB 221350Z 19018G28KT 9999 -RA BKN017 14/10 Q0995 WHT NOSIG
EGDM - Boscombe Down, United Kingdom
Distance from station: WSW 29mi, 47km
Updated: Wed, 22-Nov-2017 13:50 GMT
Mostly Cloudy
Mostly Cloudy
 Wind from S
Wind: S 18 mph , 30 km/h
Temperature: 55°F , 13°C
Dew Point: 52°F , 11°C
Humidity: 88%
Barometer: 29.38 inHg , 995 hPa
Clouds: Mostly Cloudy
Visibility: 6 miles , 10 km
Cloud details: Mostly Cloudy 1500 ft
2017/11/22 13:50 EGDM 221350Z 18016KT 9999 BKN015 13/11 Q0995 WHT TEMPO BKN014 GRN
 
EGLL - London/Heathrow, United Kingdom
Distance from station: ENE 31mi, 51km
Updated: Wed, 22-Nov-2017 13:50 GMT
Overcast
Overcast
 Wind from SSW
Wind: SSW 18 mph , 30 km/h
Temperature: 59°F , 15°C
Dew Point: 48°F , 9°C
Humidity: 68%
Barometer: 29.44 inHg , 997 hPa
Clouds: Overcast
Visibility: 6 miles , 10 km
Cloud details: Mostly Cloudy 2400 ft
Mostly Cloudy 2800 ft
Overcast 3300 ft
2017/11/22 13:50 EGLL 221350Z AUTO 20016KT 9999 BKN024 BKN028 OVC033 15/09 Q0997
EGWU - Northolt Raf, United Kingdom
Distance from station: NE 35mi, 56km
Updated: Wed, 22-Nov-2017 13:50 GMT
Overcast
Overcast
 Wind from SW
Wind: SW 20 mph , 31 km/h, Gust: 31 mph , 50 km/h
Temperature: 59°F , 15°C
Dew Point: 50°F , 10°C
Humidity: 72%
Barometer: 29.41 inHg , 996 hPa
Clouds: Overcast
Visibility: 6 miles , 10 km
Cloud details: Partly Cloudy 2300 ft
Overcast 3000 ft
2017/11/22 13:50 EGWU 221350Z 22017G27KT 9999 SCT023 OVC030 15/10 Q0996 TEMPO BKN025
 
EGVA - Fairford Raf, United Kingdom
Distance from station: NW 40mi, 65km
Updated: Wed, 22-Nov-2017 13:56 GMT
Overcast
Overcast
 Wind from SSW
Wind: SSW 26 mph , 43 km/h, Gust: 35 mph , 56 km/h
Temperature: 59°F , 15°C
Dew Point: 52°F , 11°C
Humidity: 77%
Barometer: 29.31 inHg , 992.5 hPa
Clouds: Overcast
Visibility: 6 miles , 10 km
Cloud details: Overcast 1900 ft
2017/11/22 13:56 EGVA 221356Z AUTO 20023G30KT 9999 OVC019 15/11 A2931 RMK AO2 PK WND 20034/27 SLP928 T01450109 $
EGKK - London/Gatwick A, United Kingdom
Distance from station: ESE 41mi, 66km
Updated: Wed, 22-Nov-2017 13:50 GMT
Partly Cloudy
Partly Cloudy
 Wind from SSW
Wind: SSW 15 mph , 24 km/h
Temperature: 57°F , 14°C
Dew Point: 46°F , 8°C
Humidity: 67%
Barometer: 29.47 inHg , 998 hPa
Clouds: Partly Cloudy
Visibility: 6 miles , 10 km
Cloud details: Few Clouds 2200 ft
Partly Cloudy 2800 ft
2017/11/22 13:50 EGKK 221350Z 20013KT 9999 FEW022 SCT028 14/08 Q0998
 
EGVN - Brize Norton Raf, United Kingdom
Distance from station: NNW 41mi, 66km
Updated: Wed, 22-Nov-2017 13:50 GMT
Mostly Cloudy
Mostly Cloudy
 Wind from S
Wind: S 17 mph , 28 km/h, Gust: 29 mph , 46 km/h
Temperature: 57°F , 14°C
Dew Point: 52°F , 11°C
Humidity: 82%
Barometer: 29.32 inHg , 993 hPa
Clouds: Mostly Cloudy
Visibility: 6 miles , 10 km
Cloud details: Mostly Cloudy 1600 ft
Mostly Cloudy 2800 ft
2017/11/22 13:50 EGVN 221350Z 19015G25KT 9999 BKN016 BKN028 14/11 Q0993 NOSIG
EGKA - Shoreham-By-Sea, United Kingdom
Distance from station: SE 45mi, 73km
Updated: Wed, 22-Nov-2017 13:50 GMT
Few Clouds
Few Clouds
 Wind from S
Wind: S 18 mph , 30 km/h
Temperature: 57°F , 14°C
Dew Point: 48°F , 9°C
Humidity: 72%
Barometer: 29.5 inHg , 999 hPa
Clouds: Few Clouds
Visibility: 6 miles , 10 km
Cloud details: Few Clouds 2200 ft
2017/11/22 13:50 EGKA 221350Z 19016KT 9999 FEW022 14/09 Q0999
 
EGHH - Bournemouth Airp, United Kingdom
Distance from station: SW 46mi, 75km
Updated: Wed, 22-Nov-2017 13:50 GMT
Partly Cloudy
Partly Cloudy
 Wind from SSW
Wind: SSW 17 mph , 28 km/h
Temperature: 57°F , 14°C
Dew Point: 54°F , 12°C
Humidity: 88%
Barometer: 29.41 inHg , 996 hPa
Clouds: Partly Cloudy
Visibility: 6 miles , 10 km
Cloud details: Few Clouds 1300 ft
Partly Cloudy 2000 ft
2017/11/22 13:50 EGHH 221350Z 20015KT 9999 FEW013 SCT020 14/12 Q0996
EGKB - Biggin Hill, United Kingdom
Distance from station: E 48mi, 77km
Updated: Wed, 22-Nov-2017 13:50 GMT
Few Clouds
Few Clouds
 Wind from S
Wind: S 31 mph , 50 km/h
Temperature: 55°F , 13°C
Dew Point: 46°F , 8°C
Humidity: 72%
Barometer: 29.44 inHg , 997 hPa
Clouds: Few Clouds
Visibility: 6 miles , 10 km
Cloud details: Few Clouds 2500 ft
2017/11/22 13:50 EGKB 221350Z 19027KT 9999 FEW025 13/08 Q0997

Metar display script from Saratoga-Weather.org